Time;durP1;ratioP1;P1;durP2;ratioP2;P2;SDS_P1;SDS_P2;PMS_P1;PMS_P2;Temp;Humidity;BMP_temperature;BMP_pressure;BME280_temperature;BME280_humidity;BME280_pressure;Samples;Min_cycle;Max_cycle;Signal;HPM_P1;HPM_P2
2022/03/27 00:01:25;;;;;;;13.50;6.90;;;;;;;8.30;73.74;98411.93;25097;1315;3026430;-65
2022/03/27 00:03:54;;;;;;;18.20;7.70;;;;;;;8.20;73.80;98416.58;25122;1313;3051862;-66
2022/03/27 00:06:23;;;;;;;11.90;6.50;;;;;;;8.04;74.66;98407.54;25067;1315;3026692;-63
2022/03/27 00:08:52;;;;;;;13.50;6.50;;;;;;;8.61;73.19;98404.06;25177;1315;3050723;-64
2022/03/27 00:11:41;;;;;;;8.20;5.10;;;;;;;8.66;72.23;98408.61;25081;1315;3052486;-66
2022/03/27 00:14:10;;;;;;;12.90;7.10;;;;;;;8.42;72.53;98413.92;25063;1315;3026785;-64
2022/03/27 00:16:43;;;;;;;15.10;7.50;;;;;;;8.35;72.26;98406.04;25129;1315;3027183;-65
2022/03/27 00:19:12;;;;;;;17.30;7.30;;;;;;;8.15;72.92;98394.09;25130;1313;3028736;-64
2022/03/27 00:21:44;;;;;;;16.20;7.70;;;;;;;7.76;74.49;98406.40;25115;1315;3055142;-64
2022/03/27 00:24:14;;;;;;;11.70;6.00;;;;;;;7.72;74.91;98399.20;25109;1315;3028854;-63
2022/03/27 00:26:46;;;;;;;13.60;6.60;;;;;;;8.41;73.01;98399.99;25087;1315;3028359;-65
2022/03/27 00:29:16;;;;;;;16.50;7.70;;;;;;;8.78;70.83;98400.42;25138;1315;3026098;-65
2022/03/27 00:31:48;;;;;;;12.00;6.20;;;;;;;8.47;71.10;98404.66;25065;1315;3058575;-64
2022/03/27 00:34:19;;;;;;;13.10;6.90;;;;;;;8.17;72.55;98401.14;25302;1315;3026876;-61
2022/03/27 00:36:50;;;;;;;14.20;7.50;;;;;;;8.12;72.12;98405.45;25617;1313;3026863;-63
2022/03/27 00:39:19;;;;;;;9.30;3.60;;;;;;;7.68;71.51;98476.63;25613;1315;3028796;-60
2022/03/27 00:41:49;;;;;;;3.50;1.90;;;;;;;6.61;65.59;98484.64;25186;1315;3049221;-65
2022/03/27 00:44:18;;;;;;;3.50;1.20;;;;;;;5.88;64.52;98501.05;25119;1315;3026265;-65
2022/03/27 00:46:49;;;;;;;5.10;0.90;;;;;;;5.25;64.77;98499.48;25099;1315;3029033;-63
2022/03/27 00:49:19;;;;;;;3.40;0.80;;;;;;;4.84;65.88;98528.18;25129;1315;3026586;-65
2022/03/27 00:51:49;;;;;;;4.90;1.10;;;;;;;4.75;66.82;98558.70;25080;1315;3028761;-63
2022/03/27 00:54:18;;;;;;;3.60;0.70;;;;;;;4.31;68.29;98560.39;25146;1315;3026772;-65
2022/03/27 00:56:47;;;;;;;3.50;1.00;;;;;;;4.15;68.92;98568.96;25144;1315;3070389;-62
2022/03/27 00:59:16;;;;;;;1.40;0.50;;;;;;;3.81;70.01;98580.10;25142;1315;3026509;-64
2022/03/27 01:01:46;;;;;;;2.20;0.60;;;;;;;3.52;71.56;98576.56;25104;1315;3054236;-65
2022/03/27 01:04:16;;;;;;;2.30;0.80;;;;;;;3.43;72.09;98597.91;25115;1315;3026488;-60
2022/03/27 01:06:45;;;;;;;2.20;0.70;;;;;;;3.29;72.95;98606.54;25099;1315;3026634;-65
2022/03/27 01:09:35;;;;;;;0.60;0.50;;;;;;;3.29;73.29;98612.58;25184;1315;3052978;-64
2022/03/27 01:12:24;;;;;;;1.20;0.80;;;;;;;3.03;74.47;98623.05;25087;1315;3071632;-62
2022/03/27 01:14:54;;;;;;;2.40;0.70;;;;;;;3.12;81.08;98629.77;25099;1315;3052704;-62
2022/03/27 01:17:25;;;;;;;2.60;0.30;;;;;;;2.81;83.45;98641.10;25156;1315;3026587;-62
2022/03/27 01:19:55;;;;;;;2.10;0.60;;;;;;;2.43;77.83;98640.05;25071;1315;3071629;-63
2022/03/27 01:22:25;;;;;;;1.40;0.80;;;;;;;2.10;78.38;98618.59;25068;1315;3026621;-62
2022/03/27 01:24:54;;;;;;;2.10;0.50;;;;;;;2.10;78.54;98633.79;25163;1315;3026793;-63
2022/03/27 01:27:23;;;;;;;3.20;0.50;;;;;;;2.02;78.71;98624.75;25041;1315;3070304;-61
2022/03/27 01:29:55;;;;;;;1.50;0.60;;;;;;;1.86;79.32;98611.94;25156;1315;3026935;-63
2022/03/27 01:32:24;;;;;;;1.10;0.50;;;;;;;1.87;79.74;98602.02;25106;1315;3025966;-63
2022/03/27 01:34:53;;;;;;;1.40;0.60;;;;;;;2.49;78.52;98600.08;25085;1315;3026505;-63
2022/03/27 01:37:22;;;;;;;2.10;0.60;;;;;;;2.95;75.97;98611.77;25125;1313;3026575;-65
2022/03/27 01:39:51;;;;;;;2.80;0.90;;;;;;;3.03;74.93;98619.10;25062;1315;3054944;-61
2022/03/27 01:42:20;;;;;;;2.10;1.00;;;;;;;2.72;75.64;98611.39;25113;1315;3026170;-62
2022/03/27 01:44:49;;;;;;;3.70;1.10;;;;;;;2.44;76.44;98606.85;25038;1315;3051421;-63
2022/03/27 01:47:18;;;;;;;1.90;1.00;;;;;;;2.19;77.25;98612.17;25115;1315;3026410;-62
2022/03/27 01:49:47;;;;;;;1.60;1.20;;;;;;;1.97;78.04;98621.66;25057;1315;3070535;-64
2022/03/27 01:52:16;;;;;;;2.80;0.70;;;;;;;2.09;78.09;98606.71;25113;1313;3026444;-63
2022/03/27 01:54:46;;;;;;;4.80;0.80;;;;;;;2.09;77.42;98619.12;25116;1315;3053808;-62
2022/03/27 01:57:15;;;;;;;1.70;0.70;;;;;;;2.62;76.16;98611.09;25085;1315;3026316;-63
2022/03/27 01:59:44;;;;;;;1.70;0.70;;;;;;;3.16;73.21;98609.00;25090;1315;3026827;-63
2022/03/27 02:02:13;;;;;;;4.00;0.60;;;;;;;3.28;72.50;98605.17;25054;1315;3054312;-61
2022/03/27 02:04:43;;;;;;;2.40;0.60;;;;;;;3.17;72.57;98606.36;24640;1315;3601105;-62
2022/03/27 02:07:12;;;;;;;5.40;1.50;;;;;;;3.01;72.90;98619.16;25103;1314;3026577;-62
2022/03/27 02:09:49;;;;;;;5.80;3.00;;;;;;;2.74;73.82;98636.89;25055;1315;3053921;-62
2022/03/27 02:12:18;;;;;;;6.50;3.00;;;;;;;2.74;73.57;98632.23;25091;1315;3026580;-63
2022/03/27 02:15:08;;;;;;;10.70;2.90;;;;;;;2.64;74.10;98645.61;25118;1313;3054649;-62
2022/03/27 02:17:38;;;;;;;7.60;2.90;;;;;;;2.47;74.23;98643.72;25127;1315;3051940;-62
2022/03/27 02:20:10;;;;;;;4.60;1.10;;;;;;;2.41;74.35;98641.38;25123;1315;3026676;-61
2022/03/27 02:22:40;;;;;;;5.50;0.60;;;;;;;2.93;73.03;98643.70;25132;1315;3026766;-62
2022/03/27 02:25:10;;;;;;;1.30;0.70;;;;;;;3.37;70.92;98631.79;25122;1315;3026522;-62
2022/03/27 02:27:39;;;;;;;1.00;0.60;;;;;;;3.50;70.06;98636.05;25051;1315;3026039;-61
2022/03/27 02:30:09;;;;;;;1.20;0.70;;;;;;;3.17;70.27;98636.65;25132;1315;3048658;-62
2022/03/27 02:32:38;;;;;;;1.80;0.70;;;;;;;3.07;70.62;98636.05;25100;1315;3026699;-64
2022/03/27 02:35:08;;;;;;;3.80;1.50;;;;;;;3.07;70.02;98639.34;25093;1315;3028054;-61
2022/03/27 02:37:37;;;;;;;3.50;1.60;;;;;;;2.83;71.15;98644.32;25026;1315;3026985;-62
2022/03/27 02:40:07;;;;;;;5.30;1.20;;;;;;;2.92;70.95;98646.34;25111;1315;3026163;-63
2022/03/27 02:42:37;;;;;;;4.90;1.50;;;;;;;2.74;71.58;98657.15;25083;1315;3049685;-63
2022/03/27 02:45:07;;;;;;;2.50;1.00;;;;;;;2.78;71.02;98659.25;25108;1315;3026648;-64
2022/03/27 02:47:36;;;;;;;1.80;1.00;;;;;;;2.64;71.41;98664.80;25147;1315;3050483;-63
2022/03/27 02:50:06;;;;;;;2.00;0.80;;;;;;;2.57;71.16;98670.31;25047;1315;3028009;-65
2022/03/27 02:52:35;;;;;;;2.30;0.70;;;;;;;3.20;68.41;98661.63;25068;1315;3048294;-64
2022/03/27 02:55:05;;;;;;;2.90;0.80;;;;;;;3.69;66.07;98652.19;25128;1315;3027129;-63
2022/03/27 02:57:35;;;;;;;4.40;1.50;;;;;;;3.69;65.48;98648.00;25111;1315;3026720;-64
2022/03/27 03:00:06;;;;;;;11.60;1.50;;;;;;;3.50;65.82;98645.61;25107;1315;3025966;-65
2022/03/27 03:02:36;;;;;;;6.90;1.80;;;;;;;3.47;65.99;98651.10;25118;1315;3051900;-62
2022/03/27 03:05:05;;;;;;;7.60;2.50;;;;;;;3.35;65.97;98647.27;25042;1315;3027053;-65
2022/03/27 03:07:35;;;;;;;8.30;2.80;;;;;;;3.14;66.88;98652.84;25101;1315;3048861;-63
2022/03/27 03:10:24;;;;;;;6.00;2.70;;;;;;;3.04;67.49;98652.77;25135;1315;3052376;-66
2022/03/27 03:12:53;;;;;;;9.50;3.00;;;;;;;2.92;67.72;98657.61;25077;1315;3027103;-65
2022/03/27 03:15:42;;;;;;;9.80;3.30;;;;;;;2.86;68.41;98655.27;25073;1315;3057365;-64
2022/03/27 03:18:12;;;;;;;6.00;1.80;;;;;;;2.78;67.80;98679.44;25106;1315;3026229;-64
2022/03/27 03:20:42;;;;;;;4.90;1.80;;;;;;;2.69;68.49;98661.83;25094;1315;3026446;-65
2022/03/27 03:23:32;;;;;;;5.50;1.40;;;;;;;2.54;68.94;98680.09;25043;1315;3052486;-65
2022/03/27 03:26:01;;;;;;;8.10;1.70;;;;;;;2.54;69.22;98666.09;25048;1315;3026980;-64
2022/03/27 03:28:31;;;;;;;3.70;1.10;;;;;;;2.59;69.35;98674.70;25070;1315;3026040;-67
2022/03/27 03:31:00;;;;;;;4.70;1.10;;;;;;;2.62;70.05;98672.33;25136;1314;3026403;-65
2022/03/27 03:33:29;;;;;;;2.60;0.80;;;;;;;3.12;69.03;98675.42;25054;1315;3070716;-64
2022/03/27 03:35:58;;;;;;;3.30;0.90;;;;;;;3.50;67.44;98686.27;25107;1315;3026598;-65
2022/03/27 03:38:27;;;;;;;1.50;0.60;;;;;;;3.44;66.62;98689.48;25035;1315;3027120;-65
2022/03/27 03:40:56;;;;;;;3.90;0.90;;;;;;;3.34;66.32;98692.13;25126;1315;3068756;-64
2022/03/27 03:43:26;;;;;;;3.20;0.80;;;;;;;3.19;66.10;98699.73;25084;1315;3028718;-64
2022/03/27 03:45:55;;;;;;;3.60;1.00;;;;;;;3.00;65.95;98718.88;25067;1313;3027339;-61
2022/03/27 03:48:25;;;;;;;1.90;0.80;;;;;;;2.82;65.92;98718.38;25112;1314;3071004;-63
2022/03/27 03:50:55;;;;;;;5.70;1.30;;;;;;;2.72;66.11;98714.66;25061;1315;3026193;-65
2022/03/27 03:53:24;;;;;;;2.70;0.70;;;;;;;2.67;66.07;98712.58;25156;1315;3052985;-64
2022/03/27 03:55:53;;;;;;;3.00;1.10;;;;;;;2.59;66.17;98716.04;25159;1313;3026993;-67
2022/03/27 03:58:22;;;;;;;3.80;1.20;;;;;;;2.64;65.94;98727.59;25077;1315;3027066;-66
2022/03/27 04:00:52;;;;;;;4.00;1.20;;;;;;;2.63;65.87;98727.11;25176;1313;3028547;-62
2022/03/27 04:03:21;;;;;;;2.10;0.70;;;;;;;2.48;65.90;98720.79;25068;1315;3026464;-63
2022/03/27 04:05:50;;;;;;;1.60;0.70;;;;;;;2.47;65.43;98728.77;25092;1315;3048450;-65
2022/03/27 04:08:38;;;;;;;4.50;0.90;;;;;;;2.41;65.45;98724.17;25096;1315;3051978;-63
2022/03/27 04:11:07;;;;;;;5.40;0.80;;;;;;;2.42;64.96;98727.08;25095;1315;3026530;-66
2022/03/27 04:13:40;;;;;;;4.40;1.00;;;;;;;2.35;64.77;98730.80;25057;1315;3048850;-65
2022/03/27 04:16:11;;;;;;;8.80;1.10;;;;;;;2.37;64.65;98734.35;25132;1315;3026534;-67
2022/03/27 04:18:43;;;;;;;2.90;0.80;;;;;;;2.34;64.24;98747.95;25093;1315;3026489;-64
2022/03/27 04:21:12;;;;;;;3.00;0.70;;;;;;;2.35;64.50;98751.52;25155;1315;3028505;-60
2022/03/27 04:23:42;;;;;;;2.60;0.80;;;;;;;2.30;64.01;98738.44;25047;1315;3026598;-62
2022/03/27 04:26:12;;;;;;;2.50;0.60;;;;;;;2.29;64.26;98741.02;25093;1315;3026872;-66
2022/03/27 04:28:41;;;;;;;3.20;1.10;;;;;;;2.32;63.87;98747.33;25062;1315;3026692;-64
2022/03/27 04:31:11;;;;;;;6.80;1.00;;;;;;;2.28;63.85;98751.80;25055;1315;3026251;-63
2022/03/27 04:33:40;;;;;;;3.40;0.90;;;;;;;2.30;63.48;98749.83;25109;1315;3027250;-64
2022/03/27 04:36:09;;;;;;;6.00;1.00;;;;;;;2.34;63.45;98755.89;25148;1315;3029384;-65
2022/03/27 04:38:39;;;;;;;1.30;0.60;;;;;;;2.30;63.36;98753.98;25336;1313;3068455;-62
2022/03/27 04:41:08;;;;;;;5.30;0.70;;;;;;;2.26;63.01;98757.05;25631;1315;3026496;-64
2022/03/27 04:43:38;;;;;;;9.00;1.10;;;;;;;2.27;62.58;98744.06;25616;1315;3026522;-61
2022/03/27 04:46:08;;;;;;;4.60;1.20;;;;;;;2.31;61.52;98757.21;25234;1313;3026627;-69
2022/03/27 04:48:37;;;;;;;5.40;1.20;;;;;;;2.30;61.46;98772.30;25148;1313;3026865;-63
2022/03/27 04:51:07;;;;;;;3.00;0.70;;;;;;;2.34;61.11;98755.88;25069;1313;3054094;-65
2022/03/27 04:53:36;;;;;;;5.60;0.80;;;;;;;2.31;61.19;98775.02;25114;1315;3026457;-66
2022/03/27 04:56:05;;;;;;;4.60;0.80;;;;;;;2.31;60.33;98777.77;25053;1315;3026683;-68
2022/03/27 04:58:35;;;;;;;8.70;0.90;;;;;;;2.24;60.87;98776.65;25083;1315;3054615;-65
2022/03/27 05:01:04;;;;;;;3.20;0.60;;;;;;;2.32;60.25;98773.61;25095;1315;3026746;-65
2022/03/27 05:03:33;;;;;;;4.70;0.80;;;;;;;2.34;59.90;98776.98;25051;1315;3048528;-65
2022/03/27 05:06:22;;;;;;;6.80;0.90;;;;;;;2.30;59.75;98779.37;25100;1315;3052408;-62
2022/03/27 05:08:51;;;;;;;5.50;0.70;;;;;;;2.30;59.45;98772.80;25063;1313;3028030;-65
2022/03/27 05:11:21;;;;;;;2.50;0.70;;;;;;;2.37;59.90;98772.36;25097;1315;3051547;-63
2022/03/27 05:13:50;;;;;;;2.30;0.70;;;;;;;2.42;59.70;98765.43;25115;1315;3026027;-64
2022/03/27 05:16:19;;;;;;;1.80;0.60;;;;;;;2.40;58.64;98775.02;25048;1313;3026902;-66
2022/03/27 05:18:48;;;;;;;2.70;0.50;;;;;;;2.35;58.38;98787.64;25101;1315;3050604;-63
2022/03/27 05:21:17;;;;;;;6.30;0.70;;;;;;;2.30;58.31;98788.70;25078;1313;3026357;-67
2022/03/27 05:24:08;;;;;;;2.10;0.60;;;;;;;2.30;58.15;98799.78;25088;1315;3071416;-65
2022/03/27 05:27:00;;;;;;;5.70;0.70;;;;;;;2.43;58.11;98798.42;25062;1315;3049281;-63
2022/03/27 05:29:29;;;;;;;3.90;0.80;;;;;;;2.43;57.42;98812.23;25103;1314;3026488;-64
2022/03/27 05:31:58;;;;;;;3.60;1.10;;;;;;;2.50;57.08;98804.54;25123;1315;3027643;-62
2022/03/27 05:34:27;;;;;;;3.90;1.00;;;;;;;2.59;57.19;98816.14;25048;1315;3048397;-66
2022/03/27 05:36:59;;;;;;;2.30;0.50;;;;;;;2.59;57.02;98803.19;25053;1315;3027476;-65
2022/03/27 05:39:28;;;;;;;3.30;0.70;;;;;;;2.61;56.69;98799.98;25215;1313;3026285;-65
2022/03/27 05:41:57;;;;;;;2.70;0.80;;;;;;;2.69;57.09;98802.44;25043;1315;3027942;-63
2022/03/27 05:44:27;;;;;;;2.90;0.80;;;;;;;2.73;56.42;98817.69;25075;1313;3054635;-66
2022/03/27 05:46:56;;;;;;;5.50;1.00;;;;;;;2.71;55.69;98815.52;25094;1315;3026631;-66
2022/03/27 05:49:26;;;;;;;2.90;0.80;;;;;;;2.78;55.46;98816.27;25063;1314;3051039;-63
2022/03/27 05:51:54;;;;;;;2.90;1.20;;;;;;;2.85;55.34;98837.80;25121;1313;3026793;-63
2022/03/27 05:54:24;;;;;;;1.90;1.00;;;;;;;2.81;54.74;98834.15;25117;1314;3069040;-65
2022/03/27 05:56:53;;;;;;;7.20;1.30;;;;;;;2.82;54.26;98839.27;25146;1314;3026671;-66
2022/03/27 05:59:22;;;;;;;1.90;0.70;;;;;;;2.83;54.08;98843.58;25137;1315;3052921;-66
2022/03/27 06:01:51;;;;;;;5.00;0.80;;;;;;;2.87;53.70;98839.79;25070;1315;3026566;-64
2022/03/27 06:04:20;;;;;;;7.20;1.10;;;;;;;3.05;54.08;98838.89;25097;1314;3054609;-64
2022/03/27 06:06:50;;;;;;;5.80;1.20;;;;;;;3.25;53.82;98836.56;25138;1315;3026508;-67
2022/03/27 06:09:39;;;;;;;2.30;0.80;;;;;;;3.17;53.33;98847.94;25083;1314;3067785;-65
2022/03/27 06:12:10;;;;;;;4.20;1.20;;;;;;;3.12;53.07;98852.14;25134;1313;3026340;-62
2022/03/27 06:14:58;;;;;;;1.80;0.60;;;;;;;3.09;53.62;98852.26;25127;1315;3054537;-62
2022/03/27 06:17:27;;;;;;;1.90;0.70;;;;;;;3.12;53.49;98853.68;25214;1313;3026617;-66
2022/03/27 06:20:17;;;;;;;2.60;0.80;;;;;;;3.07;53.53;98878.80;25133;1315;3055425;-64
2022/03/27 06:22:49;;;;;;;3.40;0.60;;;;;;;2.94;53.56;98869.11;25051;1313;3051717;-64
2022/03/27 06:25:21;;;;;;;5.40;0.80;;;;;;;3.02;53.89;98873.63;25076;1315;3026634;-64
2022/03/27 06:27:51;;;;;;;2.20;0.50;;;;;;;3.02;53.83;98881.08;25131;1315;3028705;-67
2022/03/27 06:30:21;;;;;;;8.40;1.00;;;;;;;3.10;53.89;98881.83;25180;1313;3026659;-65
2022/03/27 06:32:54;;;;;;;4.00;1.20;;;;;;;3.08;53.96;98902.11;25056;1315;3068917;-65
2022/03/27 06:35:23;;;;;;;4.50;1.40;;;;;;;3.17;54.24;98883.77;25069;1315;3027447;-65
2022/03/27 06:37:53;;;;;;;6.20;1.40;;;;;;;3.20;54.65;98883.14;25097;1314;3026593;-66
2022/03/27 06:40:22;;;;;;;6.30;1.10;;;;;;;3.18;54.80;98890.15;25135;1315;3026554;-65
2022/03/27 06:42:51;;;;;;;3.00;0.80;;;;;;;2.99;55.12;98914.41;25079;1313;3026784;-64
2022/03/27 06:45:22;;;;;;;2.30;0.70;;;;;;;2.82;54.73;98920.23;25094;1315;3053891;-66
2022/03/27 06:47:51;;;;;;;2.00;0.70;;;;;;;2.85;53.45;98921.16;25084;1315;3026272;-64
2022/03/27 06:50:22;;;;;;;1.70;0.90;;;;;;;2.83;52.04;98922.83;25141;1313;3026846;-65
2022/03/27 06:52:54;;;;;;;5.90;1.10;;;;;;;2.72;51.81;98927.36;25134;1313;3054115;-63
2022/03/27 06:55:23;;;;;;;7.20;1.60;;;;;;;2.71;51.29;98912.15;25134;1315;3026571;-64
2022/03/27 06:57:52;;;;;;;2.50;1.20;;;;;;;2.67;50.92;98923.55;25161;1313;3027461;-63
2022/03/27 07:03:11;;;;;;;2.00;0.80;;;;;;;2.65;52.22;98917.77;25055;1315;3054611;-65
2022/03/27 07:05:44;;;;;;;1.50;0.50;;;;;;;2.74;52.20;98932.33;25160;1313;3026527;-62
2022/03/27 07:08:15;;;;;;;2.70;0.40;;;;;;;2.71;52.43;98922.19;25131;1313;3055183;-66
2022/03/27 07:11:04;;;;;;;2.20;0.60;;;;;;;2.96;52.23;98914.36;25153;1314;3051932;-64
2022/03/27 07:13:34;;;;;;;1.40;0.50;;;;;;;3.15;52.08;98926.08;25087;1313;3026770;-67
2022/03/27 07:16:26;;;;;;;1.80;0.80;;;;;;;2.99;51.90;98933.95;25064;1315;3052631;-66
2022/03/27 07:18:56;;;;;;;2.90;0.90;;;;;;;2.70;54.72;98959.42;25155;1313;3026360;-67
2022/03/27 07:21:31;;;;;;;1.00;0.60;;;;;;;1.95;64.78;98972.38;25074;1313;3056336;-65
2022/03/27 07:24:00;;;;;;;4.10;0.50;;;;;;;1.66;64.91;98980.08;25112;1313;3026252;-64
2022/03/27 07:26:29;;;;;;;1.70;0.50;;;;;;;1.35;64.18;98982.59;25063;1313;3054811;-65
2022/03/27 07:29:01;;;;;;;2.70;0.60;;;;;;;1.40;62.87;98988.64;25107;1313;3027699;-66
2022/03/27 07:31:30;;;;;;;2.90;1.50;;;;;;;1.37;60.87;98999.77;25120;1313;3026263;-67
2022/03/27 07:33:59;;;;;;;5.60;1.60;;;;;;;1.25;60.76;98991.85;25055;1313;3026703;-64
2022/03/27 07:36:28;;;;;;;3.20;1.10;;;;;;;1.35;59.63;98980.34;25108;1313;3058390;-64
2022/03/27 07:38:57;;;;;;;4.40;1.00;;;;;;;1.52;58.33;98987.23;25062;1313;3026328;-64
2022/03/27 07:41:26;;;;;;;3.00;0.70;;;;;;;1.75;57.43;98968.55;25116;1313;3053082;-63
2022/03/27 07:43:55;;;;;;;0.90;0.50;;;;;;;1.70;55.95;98977.01;25069;1315;3026275;-64
2022/03/27 07:46:25;;;;;;;1.90;0.80;;;;;;;1.72;55.83;98982.98;25111;1313;3052477;-64
2022/03/27 07:48:55;;;;;;;4.50;0.60;;;;;;;1.75;54.64;98985.65;25146;1313;3026007;-66
2022/03/27 07:51:24;;;;;;;2.60;1.10;;;;;;;1.77;53.78;98991.11;25095;1315;3030085;-64
2022/03/27 07:53:53;;;;;;;3.00;1.20;;;;;;;1.76;53.41;98983.39;25049;1315;3026134;-62
2022/03/27 07:56:22;;;;;;;1.60;0.70;;;;;;;1.74;54.17;98994.51;25161;1315;3051049;-63
2022/03/27 07:58:52;;;;;;;1.20;0.50;;;;;;;1.78;54.39;98982.63;25128;1315;3026019;-66
2022/03/27 08:01:22;;;;;;;0.80;0.50;;;;;;;1.95;54.28;98972.73;25088;1315;3054556;-67
2022/03/27 08:03:56;;;;;;;2.10;0.40;;;;;;;2.19;53.97;98971.41;25036;1315;3027082;-63
2022/03/27 08:06:25;;;;;;;1.70;0.80;;;;;;;2.44;53.73;98969.02;25151;1315;3057402;-67
2022/03/27 08:08:55;;;;;;;2.30;0.80;;;;;;;2.48;53.20;98998.08;25118;1315;3026847;-66
2022/03/27 08:11:24;;;;;;;1.40;0.60;;;;;;;2.44;53.53;98975.90;25113;1315;3051596;-65
2022/03/27 08:13:54;;;;;;;0.80;0.50;;;;;;;2.59;53.20;98983.50;25174;1315;3026471;-66
2022/03/27 08:16:42;;;;;;;1.30;0.60;;;;;;;2.52;53.56;98979.61;25105;1315;3052708;-67
2022/03/27 08:19:11;;;;;;;2.00;0.40;;;;;;;2.44;52.71;99006.00;25191;1315;3028329;-65
2022/03/27 08:21:53;;;;;;;0.60;0.40;;;;;;;2.42;51.20;98991.55;25119;1315;3058525;-63
2022/03/27 08:24:22;;;;;;;0.80;0.40;;;;;;;2.42;51.34;99006.58;25130;1315;3026653;-64
2022/03/27 08:27:00;;;;;;;2.60;0.70;;;;;;;2.35;51.49;99008.05;25134;1315;3026264;-65
2022/03/27 08:29:31;;;;;;;1.80;0.50;;;;;;;2.26;50.59;99007.13;25102;1315;3051424;-65
2022/03/27 08:32:05;;;;;;;1.60;0.70;;;;;;;2.24;50.23;99015.47;25125;1313;3028334;-67
2022/03/27 08:34:36;;;;;;;4.00;0.70;;;;;;;2.27;50.08;99019.54;25075;1315;3029783;-65
2022/03/27 08:37:06;;;;;;;1.00;0.50;;;;;;;2.22;50.23;99020.71;25148;1313;3026889;-66
2022/03/27 08:39:36;;;;;;;0.70;0.50;;;;;;;2.08;51.07;99029.16;25129;1318;3027224;-64
2022/03/27 08:42:05;;;;;;;1.00;0.80;;;;;;;1.97;51.50;99050.92;25083;1315;3028956;-64
2022/03/27 08:44:37;;;;;;;1.60;0.50;;;;;;;1.97;51.15;99043.14;25125;1315;3027189;-64
2022/03/27 08:47:25;;;;;;;3.00;0.60;;;;;;;2.02;51.31;99022.96;25339;1315;3026839;-63
2022/03/27 08:50:14;;;;;;;3.00;0.60;;;;;;;2.26;51.15;99021.64;25542;1313;3051119;-64
2022/03/27 08:53:00;;;;;;;2.10;0.60;;;;;;;2.25;51.43;99033.58;25502;1315;3069045;-63
2022/03/27 08:55:49;;;;;;;1.20;0.70;;;;;;;2.17;51.97;99037.13;25091;1315;3051430;-67
2022/03/27 08:58:19;;;;;;;0.90;0.70;;;;;;;2.28;52.61;99042.66;25150;1313;3055166;-68
2022/03/27 09:00:49;;;;;;;1.00;0.50;;;;;;;2.09;51.98;99034.48;25094;1315;3026428;-62
2022/03/27 09:03:19;;;;;;;2.40;0.70;;;;;;;2.17;52.09;99049.41;25047;1315;3028870;-65
2022/03/27 09:05:49;;;;;;;1.30;0.70;;;;;;;2.35;50.54;99026.70;25079;1315;3027128;-66
2022/03/27 09:08:19;;;;;;;5.10;0.80;;;;;;;2.52;49.23;99040.80;25073;1315;3026317;-66
2022/03/27 09:11:01;;;;;;;3.00;0.60;;;;;;;2.71;48.07;99038.26;25130;1315;3054507;-65
2022/03/27 09:13:30;;;;;;;2.60;0.90;;;;;;;2.61;44.03;99065.23;25121;1313;3027006;-66
2022/03/27 09:16:03;;;;;;;5.30;0.50;;;;;;;2.79;42.29;99060.45;25150;1315;3026776;-66
2022/03/27 09:18:43;;;;;;;5.00;0.60;;;;;;;2.75;41.34;99053.16;25168;1315;3029618;-66
2022/03/27 09:21:12;;;;;;;2.30;0.70;;;;;;;2.70;41.95;99070.80;25108;1315;3052843;-67
2022/03/27 09:24:02;;;;;;;1.60;0.70;;;;;;;2.72;41.87;99064.86;25119;1315;3058747;-65
2022/03/27 09:26:33;;;;;;;1.70;0.70;;;;;;;2.56;41.89;99051.59;25112;1315;3026401;-66
2022/03/27 09:29:10;;;;;;;3.50;0.70;;;;;;;2.57;41.45;99056.73;25120;1315;3026560;-65
2022/03/27 09:31:40;;;;;;;2.80;0.80;;;;;;;2.56;40.73;99058.86;25133;1315;3050367;-65
2022/03/27 09:34:09;;;;;;;1.70;0.40;;;;;;;2.52;40.36;99074.52;25048;1313;3030121;-64
2022/03/27 09:36:42;;;;;;;1.50;0.40;;;;;;;2.45;40.27;99059.73;25158;1313;3052926;-64
2022/03/27 09:39:16;;;;;;;0.70;0.40;;;;;;;2.27;41.25;99076.59;25106;1315;3026477;-68
2022/03/27 09:41:59;;;;;;;1.70;0.60;;;;;;;2.07;41.37;99085.14;25143;1315;3070991;-64
2022/03/27 09:44:28;;;;;;;1.80;0.60;;;;;;;2.24;41.11;99079.77;25107;1315;3051637;-62
2022/03/27 09:47:05;;;;;;;2.50;0.90;;;;;;;2.57;40.36;99113.95;25143;1315;3026668;-65
2022/03/27 09:49:35;;;;;;;2.60;1.00;;;;;;;2.71;39.55;99070.75;25163;1315;3051646;-68
2022/03/27 09:52:19;;;;;;;2.80;1.10;;;;;;;2.95;38.79;99087.21;25125;1315;3026436;-65
2022/03/27 09:54:51;;;;;;;6.40;1.10;;;;;;;3.23;38.46;99081.89;25094;1315;3052175;-66
2022/03/27 09:57:24;;;;;;;6.10;1.10;;;;;;;3.35;38.23;99085.28;25122;1315;3026899;-66
2022/03/27 09:59:57;;;;;;;4.60;1.10;;;;;;;3.34;38.14;99099.87;25105;1313;3026998;-67
2022/03/27 10:02:28;;;;;;;3.60;0.80;;;;;;;3.22;37.86;99094.05;25084;1315;3049654;-66
2022/03/27 10:05:04;;;;;;;4.10;1.60;;;;;;;3.19;37.63;99109.05;25090;1314;3026657;-67
2022/03/27 10:07:39;;;;;;;2.60;0.60;;;;;;;3.33;37.78;99105.41;25155;1315;3053137;-66
2022/03/27 10:10:10;;;;;;;2.00;0.60;;;;;;;3.31;37.43;99119.52;25137;1315;3069345;-65
2022/03/27 10:12:46;;;;;;;1.30;0.60;;;;;;;3.34;37.60;99095.86;25150;1315;3026359;-65
2022/03/27 10:15:19;;;;;;;1.10;0.50;;;;;;;3.18;37.83;99106.64;25158;1313;3052639;-67
2022/03/27 10:17:51;;;;;;;1.30;0.50;;;;;;;2.93;38.36;99121.20;25134;1313;3051885;-65
2022/03/27 10:20:22;;;;;;;5.40;1.00;;;;;;;2.94;38.99;99123.44;25128;1313;3026829;-66
2022/03/27 10:23:20;;;;;;;4.00;0.70;;;;;;;2.92;39.05;99119.15;25124;1313;3049990;-66
2022/03/27 10:25:53;;;;;;;4.90;0.70;;;;;;;2.71;38.27;99119.01;25042;1313;3055635;-65
2022/03/27 10:28:23;;;;;;;1.40;0.80;;;;;;;3.00;37.96;99096.76;25151;1318;3052118;-68
2022/03/27 10:30:52;;;;;;;6.70;0.70;;;;;;;2.92;36.89;99122.46;25081;1315;3026307;-68
2022/03/27 10:33:24;;;;;;;4.30;0.80;;;;;;;2.96;36.37;99122.48;25151;1315;3051767;-68
2022/03/27 10:36:03;;;;;;;2.10;0.70;;;;;;;3.15;36.17;99124.76;25201;1313;3026765;-64
2022/03/27 10:39:01;;;;;;;5.30;0.70;;;;;;;3.42;36.37;99134.89;25098;1314;3071313;-65
2022/03/27 10:41:39;;;;;;;8.40;0.70;;;;;;;3.42;35.16;99127.97;25134;1315;3052436;-66
2022/03/27 10:44:27;;;;;;;4.90;0.50;;;;;;;3.47;35.08;99132.96;25079;1315;3055178;-64
2022/03/27 10:47:16;;;;;;;1.80;0.60;;;;;;;3.62;34.55;99140.55;25113;1315;3054819;-65
2022/03/27 10:50:01;;;;;;;3.10;0.70;;;;;;;3.64;34.24;99150.52;25115;1313;3057699;-67
2022/03/27 10:52:57;;;;;;;8.40;0.90;;;;;;;3.45;34.66;99138.24;25102;1315;3053332;-66
2022/03/27 10:55:42;;;;;;;5.90;1.00;;;;;;;3.50;35.12;99154.49;25118;1313;3054136;-65
2022/03/27 10:58:25;;;;;;;2.60;0.80;;;;;;;3.49;35.26;99145.51;25141;1315;3053328;-67
2022/03/27 11:00:54;;;;;;;6.90;0.90;;;;;;;3.52;35.15;99154.44;25102;1315;3071259;-67
2022/03/27 11:03:41;;;;;;;3.30;0.60;;;;;;;3.64;35.07;99142.71;25117;1315;3028991;-67
2022/03/27 11:06:26;;;;;;;5.10;0.60;;;;;;;3.50;35.42;99170.23;25145;1313;3053069;-64
2022/03/27 11:08:57;;;;;;;2.70;0.40;;;;;;;3.41;36.07;99175.08;25078;1313;3069008;-65
2022/03/27 11:11:44;;;;;;;7.30;0.90;;;;;;;3.27;36.34;99160.33;25107;1313;3026423;-64
2022/03/27 11:14:21;;;;;;;3.50;0.60;;;;;;;3.28;36.70;99171.55;25146;1313;3054803;-65
2022/03/27 11:17:06;;;;;;;1.30;0.80;;;;;;;3.32;37.28;99178.86;25170;1313;3052142;-69
2022/03/27 11:19:48;;;;;;;3.00;0.60;;;;;;;3.43;37.53;99178.65;25106;1313;3059543;-65
2022/03/27 11:22:47;;;;;;;2.40;0.60;;;;;;;3.32;37.96;99192.88;25196;1313;3026850;-67
2022/03/27 11:25:36;;;;;;;1.20;0.70;;;;;;;3.32;38.82;99184.05;25099;1313;3054958;-66
2022/03/27 11:28:11;;;;;;;4.40;1.10;;;;;;;3.16;39.63;99190.34;25159;1315;3056829;-65
2022/03/27 11:30:47;;;;;;;2.70;0.90;;;;;;;3.18;39.51;99195.79;25054;1313;3051104;-66
2022/03/27 11:33:17;;;;;;;2.50;0.70;;;;;;;3.11;39.36;99201.39;25096;1315;3053130;-66
2022/03/27 11:36:08;;;;;;;5.20;0.80;;;;;;;3.21;39.31;99196.05;25134;1315;3028498;-66
2022/03/27 11:39:02;;;;;;;5.40;0.70;;;;;;;3.21;39.68;99194.64;25089;1318;3071358;-67
2022/03/27 11:41:46;;;;;;;2.10;0.70;;;;;;;2.98;40.88;99204.27;25201;1315;3052071;-67
2022/03/27 11:47:20;;;;;;;3.90;0.60;;;;;;;2.41;45.48;99214.58;25212;1313;3051973;-63
2022/03/27 11:49:50;;;;;;;0.90;0.70;;;;;;;2.39;44.90;99218.26;25088;1313;3058053;-64
2022/03/27 11:52:21;;;;;;;1.90;0.70;;;;;;;2.43;44.18;99238.36;25045;1313;3026259;-68
2022/03/27 11:55:02;;;;;;;3.50;0.60;;;;;;;2.56;43.96;99216.52;25160;1313;3026403;-67
2022/03/27 11:57:45;;;;;;;4.50;0.80;;;;;;;2.91;43.00;99225.95;25154;1313;3053644;-66